createdAt,value
2022-12-08T00:01:11.587Z,1.25
2022-12-08T00:04:15.231Z,1.35
2022-12-08T00:07:18.514Z,1.33
2022-12-08T00:10:48.002Z,1.33
2022-12-08T00:13:44.048Z,1.20
2022-12-08T00:16:47.283Z,1.30
2022-12-08T00:19:50.518Z,1.30
2022-12-08T00:22:53.364Z,1.20
2022-12-08T00:25:55.877Z,1.17
2022-12-08T00:28:58.910Z,1.30
2022-12-08T00:32:01.090Z,1.60
2022-12-08T00:35:04.068Z,1.20
2022-12-08T00:38:07.582Z,1.30
2022-12-08T00:41:10.770Z,1.40
2022-12-08T00:44:13.662Z,1.33
2022-12-08T00:47:19.747Z,1.50
2022-12-08T00:50:24.990Z,1.10
2022-12-08T00:53:28.342Z,1.30
2022-12-08T00:56:30.867Z,1.17
2022-12-08T00:59:33.679Z,1.08
2022-12-08T01:02:36.174Z,1.08
2022-12-08T01:05:39.100Z,1.02
2022-12-08T01:08:41.755Z,1.10
2022-12-08T01:11:44.867Z,1.08
2022-12-08T01:14:47.597Z,1.10
2022-12-08T01:17:50.053Z,1.00
2022-12-08T01:20:52.622Z,0.90
2022-12-08T01:23:55.459Z,1.10
2022-12-08T01:26:57.899Z,0.95
2022-12-08T01:30:00.744Z,1.00
2022-12-08T01:33:03.197Z,1.10
2022-12-08T01:36:06.307Z,1.02
2022-12-08T01:39:09.118Z,1.15
2022-12-08T01:42:11.772Z,0.80
2022-12-08T01:45:14.603Z,1.10
2022-12-08T01:48:17.283Z,1.05
2022-12-08T01:51:20.280Z,1.15
2022-12-08T01:54:23.063Z,1.10
2022-12-08T01:57:25.205Z,1.00
2022-12-08T02:00:28.064Z,1.00
2022-12-08T02:03:31.026Z,0.95
2022-12-08T02:06:33.624Z,1.13
2022-12-08T02:09:36.225Z,1.02
2022-12-08T02:12:38.920Z,1.05
2022-12-08T02:15:41.461Z,0.90
2022-12-08T02:18:47.882Z,1.20
2022-12-08T02:21:56.525Z,1.00
2022-12-08T02:24:59.010Z,1.00
2022-12-08T02:28:01.581Z,1.00
2022-12-08T02:31:03.999Z,1.10
2022-12-08T02:34:06.578Z,1.00
2022-12-08T02:37:08.760Z,0.90
2022-12-08T02:40:11.326Z,1.00
2022-12-08T02:43:14.284Z,1.00
2022-12-08T02:46:16.763Z,1.05
2022-12-08T02:49:19.426Z,1.10
2022-12-08T02:52:22.331Z,1.00
2022-12-08T02:55:25.078Z,1.13
2022-12-08T02:58:28.342Z,1.15
2022-12-08T03:01:31.306Z,1.05
2022-12-08T03:04:33.827Z,1.10
2022-12-08T03:07:36.548Z,1.10
2022-12-08T03:10:39.334Z,1.10
2022-12-08T03:13:42.187Z,1.13
2022-12-08T03:16:45.239Z,1.08
2022-12-08T03:19:48.834Z,0.80
2022-12-08T03:22:51.601Z,1.10
2022-12-08T03:25:54.199Z,0.90
2022-12-08T03:28:56.308Z,0.95
2022-12-08T03:31:58.730Z,0.90
2022-12-08T03:35:01.529Z,1.00
2022-12-08T03:38:04.729Z,1.00
2022-12-08T03:41:07.141Z,0.88
2022-12-08T03:44:10.021Z,0.90
2022-12-08T03:47:12.876Z,1.02
2022-12-08T03:50:15.778Z,0.90
2022-12-08T03:53:18.654Z,1.10
2022-12-08T03:56:21.503Z,1.10
2022-12-08T03:59:24.545Z,0.90
2022-12-08T04:02:27.042Z,1.08
2022-12-08T04:05:29.784Z,0.98
2022-12-08T04:08:32.693Z,0.77
2022-12-08T04:11:35.596Z,0.80
2022-12-08T04:14:38.014Z,0.90
2022-12-08T04:17:40.857Z,0.82
2022-12-08T04:20:42.987Z,0.80
2022-12-08T04:23:45.570Z,0.70
2022-12-08T04:26:48.977Z,0.95
2022-12-08T04:29:51.390Z,0.80
2022-12-08T04:32:54.244Z,0.70
2022-12-08T04:35:56.414Z,0.50
2022-12-08T04:38:59.391Z,0.70
2022-12-08T04:42:02.260Z,0.63
2022-12-08T04:45:05.256Z,0.60
2022-12-08T04:48:07.668Z,0.50
2022-12-08T04:51:10.652Z,0.50
2022-12-08T04:54:13.667Z,0.60
2022-12-08T04:57:16.299Z,0.40
2022-12-08T05:00:18.989Z,0.43
2022-12-08T05:03:28.341Z,0.45
2022-12-08T05:06:30.560Z,0.40
2022-12-08T05:09:32.733Z,0.50
2022-12-08T05:12:35.582Z,0.40
2022-12-08T05:15:38.427Z,0.50
2022-12-08T05:18:41.015Z,0.40
2022-12-08T05:21:43.172Z,0.40
2022-12-08T05:24:47.619Z,0.50
2022-12-08T05:27:50.459Z,0.35
2022-12-08T05:30:53.345Z,0.50
2022-12-08T05:33:59.662Z,0.40
2022-12-08T05:37:05.778Z,0.57
2022-12-08T05:40:08.674Z,0.60
2022-12-08T05:43:11.648Z,0.65
2022-12-08T05:46:14.920Z,0.60
2022-12-08T05:49:17.879Z,0.60
2022-12-08T05:52:21.232Z,0.40
2022-12-08T05:55:24.089Z,0.73
2022-12-08T05:58:27.437Z,0.50
2022-12-08T06:01:30.066Z,0.30
2022-12-08T06:04:32.689Z,0.47
2022-12-08T06:07:34.815Z,0.40
2022-12-08T06:10:37.410Z,0.40
2022-12-08T06:13:40.007Z,0.40
2022-12-08T06:16:42.529Z,0.32
2022-12-08T06:19:45.371Z,0.40
2022-12-08T06:22:48.176Z,0.30
2022-12-08T06:25:50.939Z,0.45
2022-12-08T06:28:53.973Z,0.50
2022-12-08T06:31:57.287Z,0.40
2022-12-08T06:35:00.108Z,0.50
2022-12-08T06:38:03.230Z,0.40
2022-12-08T06:41:06.527Z,0.40
2022-12-08T06:44:09.961Z,0.47
2022-12-08T06:47:12.114Z,0.40
2022-12-08T06:50:14.664Z,0.52
2022-12-08T06:53:17.452Z,0.47
2022-12-08T06:56:20.080Z,0.65
2022-12-08T06:59:23.125Z,0.55
2022-12-08T07:02:26.416Z,0.30
2022-12-08T07:05:28.840Z,0.40
2022-12-08T07:08:31.119Z,0.30
2022-12-08T07:11:34.200Z,0.40
2022-12-08T07:14:37.099Z,0.40
2022-12-08T07:17:39.297Z,0.38
2022-12-08T07:20:41.819Z,0.50
2022-12-08T07:23:44.649Z,0.55
2022-12-08T07:26:47.210Z,0.70
2022-12-08T07:29:49.575Z,0.60
2022-12-08T07:32:52.571Z,0.52
2022-12-08T07:35:55.943Z,0.80
2022-12-08T07:38:58.763Z,0.70
2022-12-08T07:42:00.979Z,0.60
2022-12-08T07:45:03.539Z,0.60
2022-12-08T07:48:06.752Z,0.70
2022-12-08T07:51:09.782Z,0.68
2022-12-08T07:54:12.707Z,0.65
2022-12-08T07:57:15.222Z,0.90
2022-12-08T08:00:18.569Z,0.80
2022-12-08T08:03:21.411Z,0.70
2022-12-08T08:06:24.133Z,0.70
2022-12-08T08:09:27.303Z,0.60
2022-12-08T08:12:32.008Z,0.70
2022-12-08T08:15:35.215Z,0.60
2022-12-08T08:18:38.216Z,0.52
2022-12-08T08:21:45.932Z,0.70
2022-12-08T08:24:49.328Z,0.70
2022-12-08T08:27:53.593Z,0.55
2022-12-08T08:30:56.405Z,0.60
2022-12-08T08:33:59.188Z,0.50
2022-12-08T08:37:01.665Z,0.68
2022-12-08T08:40:04.497Z,0.65
2022-12-08T08:43:07.434Z,0.52
2022-12-08T08:46:10.091Z,0.50
2022-12-08T08:49:13.183Z,0.65
2022-12-08T08:52:15.578Z,0.60
2022-12-08T08:55:17.863Z,0.60
2022-12-08T08:58:20.885Z,0.60
2022-12-08T09:01:24.242Z,0.55
2022-12-08T09:04:27.619Z,0.70
2022-12-08T09:07:30.658Z,0.60
2022-12-08T09:10:33.552Z,0.52
2022-12-08T09:13:36.528Z,0.50
2022-12-08T09:16:42.376Z,0.50
2022-12-08T09:19:45.434Z,0.65
2022-12-08T09:22:48.282Z,0.60
2022-12-08T09:25:51.789Z,0.68
2022-12-08T09:28:54.996Z,0.60
2022-12-08T09:31:58.251Z,0.70
2022-12-08T09:35:00.742Z,0.65
2022-12-08T09:38:03.375Z,0.50
2022-12-08T09:41:06.116Z,0.55
2022-12-08T09:44:09.130Z,0.50
2022-12-08T09:47:12.039Z,0.52
2022-12-08T09:50:14.534Z,0.50
2022-12-08T09:53:17.187Z,0.55
2022-12-08T09:56:20.798Z,0.60
2022-12-08T09:59:23.339Z,0.70
2022-12-08T10:02:25.313Z,0.50
2022-12-08T10:05:28.785Z,0.60
2022-12-08T10:08:32.439Z,0.50
2022-12-08T10:11:35.589Z,0.40
2022-12-08T10:14:38.079Z,0.40
2022-12-08T10:17:40.411Z,0.50
2022-12-08T10:20:43.309Z,0.50
2022-12-08T10:23:46.162Z,0.50
2022-12-08T10:26:49.276Z,0.43
2022-12-08T10:29:52.161Z,0.40
2022-12-08T10:32:54.653Z,0.40
2022-12-08T10:35:57.415Z,0.40
2022-12-08T10:39:00.772Z,0.50
2022-12-08T10:42:03.518Z,0.40
2022-12-08T10:45:06.486Z,0.52
2022-12-08T10:48:09.211Z,0.50
2022-12-08T10:51:12.320Z,0.30
2022-12-08T10:54:20.518Z,0.40
2022-12-08T10:57:25.168Z,0.50
2022-12-08T11:00:28.536Z,0.40
2022-12-08T11:03:31.203Z,0.30
2022-12-08T11:06:33.910Z,0.40
2022-12-08T11:09:36.513Z,0.40
2022-12-08T11:12:39.073Z,0.47
2022-12-08T11:15:41.728Z,0.55
2022-12-08T11:18:45.140Z,0.50
2022-12-08T11:21:47.816Z,0.43
2022-12-08T11:24:50.248Z,0.40
2022-12-08T11:27:53.489Z,0.40
2022-12-08T11:30:56.032Z,0.30
2022-12-08T11:33:58.549Z,0.47
2022-12-08T11:37:00.728Z,0.30
2022-12-08T11:40:03.531Z,0.40
2022-12-08T11:43:06.342Z,0.30
2022-12-08T11:46:09.323Z,0.35
2022-12-08T11:49:12.655Z,0.30
2022-12-08T11:52:16.038Z,0.35
2022-12-08T11:55:19.206Z,0.43
2022-12-08T11:58:22.137Z,0.40
2022-12-08T12:01:24.511Z,0.43
2022-12-08T12:04:27.925Z,0.45
2022-12-08T12:07:31.051Z,0.30
2022-12-08T12:10:34.489Z,0.43
2022-12-08T12:13:37.446Z,0.47
2022-12-08T12:16:40.419Z,0.30
2022-12-08T12:19:43.810Z,0.40
2022-12-08T12:22:47.100Z,0.40
2022-12-08T12:25:50.072Z,0.30
2022-12-08T12:28:53.541Z,0.30
2022-12-08T12:31:55.917Z,0.40
2022-12-08T12:34:58.974Z,0.40
2022-12-08T12:38:01.831Z,0.40
2022-12-08T12:41:04.709Z,0.30
2022-12-08T12:44:07.428Z,0.30
2022-12-08T12:47:09.340Z,0.30
2022-12-08T12:50:12.030Z,0.30
2022-12-08T12:53:14.652Z,0.40
2022-12-08T12:56:16.540Z,0.40
2022-12-08T12:59:18.833Z,0.30
2022-12-08T13:02:21.524Z,0.30
2022-12-08T13:05:24.783Z,0.30
2022-12-08T13:08:27.524Z,0.28
2022-12-08T13:11:30.275Z,0.30
2022-12-08T13:14:32.850Z,0.40
2022-12-08T13:17:35.105Z,0.30
2022-12-08T13:20:37.898Z,0.40
2022-12-08T13:23:40.464Z,0.28
2022-12-08T13:26:43.268Z,0.30
2022-12-08T13:29:46.571Z,0.43
2022-12-08T13:33:16.731Z,0.30
2022-12-08T13:36:11.683Z,0.40
2022-12-08T13:39:13.896Z,0.60
2022-12-08T13:42:16.899Z,0.30
2022-12-08T13:45:33.643Z,0.60
2022-12-08T13:50:32.423Z,0.50
2022-12-08T13:58:48.792Z,0.50
2022-12-08T14:01:51.142Z,0.50
2022-12-08T14:05:17.601Z,0.50
2022-12-08T14:08:30.085Z,0.40
2022-12-08T14:11:38.328Z,0.30
2022-12-08T14:15:10.925Z,0.32
2022-12-08T14:18:03.414Z,0.40
2022-12-08T14:21:20.793Z,0.50
2022-12-08T14:24:23.434Z,0.40
2022-12-08T14:27:26.100Z,0.40
2022-12-08T14:30:28.244Z,0.40
2022-12-08T14:33:31.471Z,0.40
2022-12-08T14:36:35.168Z,0.30
2022-12-08T14:39:38.250Z,0.50
2022-12-08T14:42:41.250Z,0.30
2022-12-08T14:45:44.749Z,0.40
2022-12-08T14:48:47.377Z,0.30
2022-12-08T14:51:49.506Z,0.35
2022-12-08T14:54:52.601Z,0.50
2022-12-08T14:57:55.557Z,0.40
2022-12-08T15:00:58.576Z,0.45
2022-12-08T15:04:01.509Z,0.40
2022-12-08T15:07:04.392Z,0.50
2022-12-08T15:10:07.548Z,0.40
2022-12-08T15:13:10.780Z,0.50
2022-12-08T15:16:13.782Z,0.30
2022-12-08T15:19:17.041Z,0.40
2022-12-08T15:22:19.599Z,0.50
2022-12-08T15:25:22.619Z,0.32
2022-12-08T15:28:29.797Z,0.50
2022-12-08T15:31:33.545Z,0.40
2022-12-08T15:34:36.074Z,0.60
2022-12-08T15:37:39.153Z,0.50
2022-12-08T15:40:42.374Z,0.52
2022-12-08T15:43:44.957Z,0.50
2022-12-08T15:46:47.473Z,0.50
2022-12-08T15:49:49.979Z,0.57
2022-12-08T15:52:52.719Z,0.50
2022-12-08T15:59:18.079Z,0.60
2022-12-08T16:02:22.717Z,0.60
2022-12-08T16:05:42.892Z,0.75
2022-12-08T16:08:56.155Z,0.70
2022-12-08T16:12:10.154Z,0.68
2022-12-08T16:18:39.883Z,0.50
2022-12-08T16:25:21.758Z,0.50
2022-12-08T16:28:52.772Z,0.50
2022-12-08T16:31:47.034Z,0.63
2022-12-08T16:34:49.968Z,0.75
2022-12-08T16:37:52.864Z,0.65
2022-12-08T16:40:55.643Z,0.55
2022-12-08T16:43:58.542Z,0.60
2022-12-08T16:47:01.677Z,0.70
2022-12-08T16:50:04.714Z,0.82
2022-12-08T16:53:08.029Z,0.70
2022-12-08T16:56:10.561Z,0.88
2022-12-08T16:59:13.561Z,0.80
2022-12-08T17:02:17.037Z,0.95
2022-12-08T17:05:20.468Z,0.80
2022-12-08T17:08:23.443Z,0.90
2022-12-08T17:11:25.973Z,1.23
2022-12-08T17:14:29.026Z,1.30
2022-12-08T17:17:32.636Z,1.10
2022-12-08T17:20:36.435Z,1.00
2022-12-08T17:23:39.629Z,1.25
2022-12-08T17:26:42.293Z,1.00
2022-12-08T17:29:46.033Z,0.90
2022-12-08T17:32:48.978Z,1.10
2022-12-08T17:35:51.299Z,1.00
2022-12-08T17:38:54.241Z,1.10
2022-12-08T17:41:56.732Z,1.00
2022-12-08T17:44:59.150Z,1.00
2022-12-08T17:48:02.081Z,1.13
2022-12-08T17:51:04.967Z,1.23
2022-12-08T17:54:07.160Z,1.20
2022-12-08T17:57:09.270Z,1.20
2022-12-08T18:00:11.541Z,1.17
2022-12-08T18:03:13.688Z,1.20
2022-12-08T18:06:15.821Z,1.23
2022-12-08T18:09:18.562Z,1.25
2022-12-08T18:12:23.846Z,1.30
2022-12-08T18:15:27.049Z,1.40
2022-12-08T18:18:29.901Z,1.20
2022-12-08T18:21:32.399Z,1.50
2022-12-08T18:24:35.447Z,1.30
2022-12-08T18:27:42.997Z,1.52
2022-12-08T18:30:46.395Z,1.35
2022-12-08T18:33:49.227Z,1.35
2022-12-08T18:36:51.712Z,1.30
2022-12-08T18:39:54.749Z,1.30
2022-12-08T18:42:57.591Z,1.23
2022-12-08T18:46:00.805Z,1.30
2022-12-08T18:49:03.935Z,1.30
2022-12-08T18:52:06.788Z,1.40
2022-12-08T18:55:09.844Z,1.10
2022-12-08T18:58:12.740Z,1.40
2022-12-08T19:01:15.978Z,1.63
2022-12-08T19:04:38.489Z,1.30
2022-12-08T19:07:40.454Z,1.30
2022-12-08T19:10:43.121Z,1.45
2022-12-08T19:13:45.693Z,1.60
2022-12-08T19:16:48.612Z,1.70
2022-12-08T19:19:51.488Z,1.67
2022-12-08T19:22:53.640Z,1.60
2022-12-08T19:25:55.763Z,1.70
2022-12-08T19:28:57.655Z,1.60
2022-12-08T19:32:00.133Z,1.88
2022-12-08T19:35:03.013Z,1.90
2022-12-08T19:38:05.186Z,2.08
2022-12-08T19:41:07.860Z,2.03
2022-12-08T19:44:10.415Z,2.00
2022-12-08T19:47:13.065Z,1.92
2022-12-08T19:50:15.676Z,2.00
2022-12-08T19:53:18.364Z,1.90
2022-12-08T19:56:21.183Z,1.92
2022-12-08T19:59:23.875Z,1.85
2022-12-08T20:02:26.491Z,1.98
2022-12-08T20:05:29.593Z,1.80
2022-12-08T20:08:32.414Z,2.03
2022-12-08T20:11:35.275Z,2.00
2022-12-08T20:14:42.697Z,1.88
2022-12-08T20:17:49.359Z,1.98
2022-12-08T20:20:52.459Z,1.92
2022-12-08T20:23:55.330Z,2.05
2022-12-08T20:26:58.252Z,2.13
2022-12-08T20:30:00.672Z,2.35
2022-12-08T20:33:03.235Z,2.20
2022-12-08T20:36:05.802Z,2.40
2022-12-08T20:39:08.639Z,2.25
2022-12-08T20:42:11.482Z,2.58
2022-12-08T20:45:14.219Z,2.75
2022-12-08T20:48:17.249Z,2.67
2022-12-08T20:51:20.013Z,2.60
2022-12-08T20:54:23.907Z,2.67
2022-12-08T20:57:26.813Z,2.60
2022-12-08T21:00:29.427Z,2.40
2022-12-08T21:03:32.160Z,2.38
2022-12-08T21:06:34.808Z,2.67
2022-12-08T21:09:38.828Z,2.17
2022-12-08T21:12:41.566Z,2.35
2022-12-08T21:15:44.193Z,2.10
2022-12-08T21:18:47.233Z,2.55
2022-12-08T21:21:50.881Z,2.40
2022-12-08T21:24:53.895Z,2.20
2022-12-08T21:27:56.291Z,2.20
2022-12-08T21:30:59.020Z,2.45
2022-12-08T21:34:02.202Z,2.30
2022-12-08T21:37:05.283Z,2.70
2022-12-08T21:40:08.177Z,2.60
2022-12-08T21:43:11.262Z,2.60
2022-12-08T21:46:14.290Z,2.92
2022-12-08T21:49:17.354Z,2.67
2022-12-08T21:52:19.961Z,2.67
2022-12-08T21:55:22.850Z,3.10
2022-12-08T21:58:25.631Z,3.00
2022-12-08T22:01:29.025Z,2.92
2022-12-08T22:04:31.636Z,3.38
2022-12-08T22:07:34.353Z,2.85
2022-12-08T22:10:37.759Z,2.88
2022-12-08T22:13:40.615Z,3.00
2022-12-08T22:16:44.012Z,2.88
2022-12-08T22:19:47.586Z,2.85
2022-12-08T22:22:50.489Z,2.80
2022-12-08T22:25:53.179Z,2.70
2022-12-08T22:28:55.851Z,2.53
2022-12-08T22:31:58.567Z,2.60
2022-12-08T22:35:01.174Z,2.75
2022-12-08T22:38:03.800Z,2.50
2022-12-08T22:41:06.523Z,2.30
2022-12-08T22:44:09.542Z,2.83
2022-12-08T22:47:12.950Z,2.83
2022-12-08T22:50:16.108Z,2.60
2022-12-08T22:53:19.027Z,2.50
2022-12-08T22:56:21.377Z,2.80
2022-12-08T22:59:24.016Z,2.92
2022-12-08T23:02:26.203Z,3.00
2022-12-08T23:05:29.035Z,3.33
2022-12-08T23:08:31.345Z,3.13
2022-12-08T23:11:34.542Z,3.55
2022-12-08T23:14:37.878Z,3.10
2022-12-08T23:17:40.502Z,3.47
2022-12-08T23:20:43.208Z,3.30
2022-12-08T23:23:46.248Z,3.05
2022-12-08T23:26:49.245Z,3.10
2022-12-08T23:29:52.422Z,3.53
2022-12-08T23:32:55.689Z,3.10
2022-12-08T23:35:58.653Z,3.20
2022-12-08T23:39:01.371Z,3.00
2022-12-08T23:42:04.433Z,2.70
2022-12-08T23:45:07.048Z,2.85
2022-12-08T23:48:10.042Z,2.90
2022-12-08T23:51:12.788Z,3.15
2022-12-08T23:54:15.438Z,2.80
2022-12-08T23:57:17.952Z,2.47
